createdAt,value
2018-12-31T00:00:37.897Z,63.43
2018-12-31T00:03:07.573Z,67.95
2018-12-31T00:05:36.928Z,67.60
2018-12-31T00:08:08.611Z,63.03
2018-12-31T00:10:37.968Z,74.87
2018-12-31T00:13:07.630Z,78.30
2018-12-31T00:15:36.988Z,67.87
2018-12-31T00:18:06.698Z,75.17
2018-12-31T00:20:36.044Z,66.17
2018-12-31T00:23:05.703Z,75.75
2018-12-31T00:25:35.051Z,57.17
2018-12-31T00:28:04.835Z,64.53
2018-12-31T00:30:34.188Z,69.27
2018-12-31T00:33:03.779Z,73.70
2018-12-31T00:35:33.141Z,73.15
2018-12-31T00:38:02.508Z,66.27
2018-12-31T00:40:32.406Z,62.40
2018-12-31T00:43:02.035Z,66.03
2018-12-31T00:45:31.426Z,64.77
2018-12-31T00:48:01.116Z,80.17
2018-12-31T00:50:31.048Z,67.62
2018-12-31T00:53:01.388Z,75.07
2018-12-31T00:55:31.029Z,72.62
2018-12-31T00:58:00.432Z,72.60
2018-12-31T01:00:29.780Z,70.17
2018-12-31T01:02:59.391Z,76.57
2018-12-31T01:05:28.779Z,70.35
2018-12-31T01:07:58.180Z,78.67
2018-12-31T01:10:27.771Z,72.30
2018-12-31T01:12:57.157Z,73.80
2018-12-31T01:15:26.794Z,72.35
2018-12-31T01:17:56.246Z,86.30
2018-12-31T01:20:25.965Z,75.43
2018-12-31T01:22:55.345Z,81.23
2018-12-31T01:25:24.994Z,76.10
2018-12-31T01:27:55.632Z,76.33
2018-12-31T01:30:25.416Z,86.87
2018-12-31T01:32:55.106Z,78.43
2018-12-31T01:35:24.514Z,73.73
2018-12-31T01:37:55.284Z,80.67
2018-12-31T01:40:24.641Z,87.70
2018-12-31T01:42:55.806Z,82.27
2018-12-31T01:45:25.441Z,80.10
2018-12-31T01:47:55.109Z,78.37
2018-12-31T01:50:24.454Z,84.92
2018-12-31T01:52:54.204Z,79.17
2018-12-31T01:55:23.797Z,80.13
2018-12-31T01:57:53.206Z,86.10
2018-12-31T02:00:23.542Z,81.13
2018-12-31T02:02:53.262Z,87.00
2018-12-31T02:05:22.599Z,85.60
2018-12-31T02:07:52.313Z,89.70
2018-12-31T02:10:21.622Z,73.83
2018-12-31T02:12:51.398Z,81.93
2018-12-31T02:15:21.067Z,85.53
2018-12-31T02:17:50.661Z,80.67
2018-12-31T02:29:01.473Z,80.03
2018-12-31T02:31:31.478Z,81.08
2018-12-31T02:34:02.961Z,72.03
2018-12-31T02:36:32.568Z,84.00
2018-12-31T02:39:02.236Z,69.50
2018-12-31T02:41:31.588Z,74.40
2018-12-31T02:44:01.235Z,75.23
2018-12-31T02:46:30.584Z,66.40
2018-12-31T02:48:59.948Z,72.20
2018-12-31T02:51:29.335Z,66.00
2018-12-31T02:53:58.751Z,76.07
2018-12-31T02:56:28.550Z,71.80
2018-12-31T02:58:58.260Z,73.93
2018-12-31T03:01:27.931Z,66.60
2018-12-31T03:03:57.454Z,73.10
2018-12-31T03:06:27.842Z,61.18
2018-12-31T03:08:57.665Z,57.37
2018-12-31T03:11:27.315Z,70.00
2018-12-31T03:13:57.479Z,72.50
2018-12-31T03:16:26.823Z,63.15
2018-12-31T03:18:56.707Z,81.40
2018-12-31T03:21:26.361Z,62.30
2018-12-31T03:23:55.727Z,69.53
2018-12-31T03:26:25.366Z,66.65
2018-12-31T03:28:54.730Z,78.93
2018-12-31T03:31:24.734Z,78.17
2018-12-31T03:33:54.286Z,63.77
2018-12-31T03:36:23.806Z,66.90
2018-12-31T03:38:53.441Z,67.83
2018-12-31T03:41:22.873Z,59.43
2018-12-31T03:43:52.420Z,64.33
2018-12-31T03:46:22.074Z,62.17
2018-12-31T03:48:51.569Z,65.70
2018-12-31T03:51:20.933Z,63.60
2018-12-31T03:53:50.588Z,72.37
2018-12-31T03:56:20.561Z,60.75
2018-12-31T03:58:49.911Z,71.17
2018-12-31T04:01:20.380Z,65.97
2018-12-31T04:03:49.731Z,67.93
2018-12-31T04:06:19.392Z,70.37
2018-12-31T04:08:48.732Z,54.97
2018-12-31T04:11:20.507Z,60.00
2018-12-31T04:13:49.862Z,60.37
2018-12-31T04:16:19.528Z,65.70
2018-12-31T04:18:48.894Z,58.40
2018-12-31T04:21:19.140Z,55.78
2018-12-31T04:23:48.511Z,60.53
2018-12-31T04:26:18.885Z,58.87
2018-12-31T04:28:48.539Z,56.60
2018-12-31T04:31:20.306Z,50.55
2018-12-31T04:33:49.647Z,43.03
2018-12-31T04:36:19.934Z,54.17
2018-12-31T04:38:55.619Z,55.57
2018-12-31T04:41:25.013Z,53.73
2018-12-31T04:43:54.666Z,57.27
2018-12-31T04:46:24.034Z,46.43
2018-12-31T04:48:53.534Z,57.57
2018-12-31T04:51:22.899Z,44.70
2018-12-31T04:53:52.592Z,52.88
2018-12-31T04:56:22.094Z,43.17
2018-12-31T04:58:51.921Z,46.20
2018-12-31T05:01:22.781Z,52.03
2018-12-31T05:03:52.418Z,46.50
2018-12-31T05:06:22.088Z,47.47
2018-12-31T05:08:51.434Z,44.60
2018-12-31T05:11:21.242Z,50.43
2018-12-31T05:13:50.820Z,41.50
2018-12-31T05:16:20.219Z,50.17
2018-12-31T05:18:49.914Z,45.23
2018-12-31T05:21:19.577Z,51.85
2018-12-31T05:23:48.927Z,52.40
2018-12-31T05:26:19.068Z,54.27
2018-12-31T05:28:48.717Z,45.25
2018-12-31T05:31:18.087Z,49.23
2018-12-31T05:33:47.778Z,47.67
2018-12-31T05:36:17.139Z,52.60
2018-12-31T05:38:46.742Z,53.17
2018-12-31T05:41:17.823Z,53.90
2018-12-31T05:43:47.257Z,59.50
2018-12-31T05:46:16.791Z,57.33
2018-12-31T05:48:46.424Z,54.10
2018-12-31T05:51:15.810Z,59.23
2018-12-31T05:53:45.165Z,64.70
2018-12-31T05:56:14.827Z,60.33
2018-12-31T05:58:44.182Z,61.17
2018-12-31T06:01:13.862Z,62.63
2018-12-31T06:03:43.224Z,64.33
2018-12-31T06:06:12.773Z,59.97
2018-12-31T06:08:42.115Z,59.60
2018-12-31T06:11:11.481Z,55.03
2018-12-31T06:13:41.165Z,58.13
2018-12-31T06:16:10.866Z,59.63
2018-12-31T06:18:41.452Z,59.73
2018-12-31T06:21:11.003Z,59.77
2018-12-31T06:23:40.629Z,66.33
2018-12-31T06:26:10.011Z,59.60
2018-12-31T06:28:39.360Z,56.67
2018-12-31T06:31:09.289Z,52.25
2018-12-31T06:33:38.836Z,44.50
2018-12-31T06:36:08.210Z,49.20
2018-12-31T06:38:38.829Z,45.88
2018-12-31T06:41:08.199Z,40.73
2018-12-31T06:43:37.865Z,37.73
2018-12-31T06:46:07.335Z,31.00
2018-12-31T06:48:37.005Z,40.15
2018-12-31T06:51:08.105Z,36.63
2018-12-31T06:53:37.473Z,33.60
2018-12-31T06:56:07.330Z,30.37
2018-12-31T06:58:37.005Z,33.75
2018-12-31T07:01:06.359Z,28.50
2018-12-31T07:03:36.183Z,38.50
2018-12-31T07:06:05.522Z,28.73
2018-12-31T07:08:35.219Z,35.10
2018-12-31T07:11:04.865Z,42.25
2018-12-31T07:13:35.320Z,33.13
2018-12-31T07:16:04.660Z,33.70
2018-12-31T07:18:34.579Z,39.33
2018-12-31T07:21:04.107Z,40.50
2018-12-31T07:23:33.472Z,35.10
2018-12-31T07:26:03.092Z,38.80
2018-12-31T07:28:32.470Z,40.37
2018-12-31T07:31:01.963Z,34.33
2018-12-31T07:33:31.322Z,33.65
2018-12-31T07:36:00.967Z,43.08
2018-12-31T07:38:32.483Z,36.13
2018-12-31T07:41:02.228Z,39.67
2018-12-31T07:43:31.590Z,45.23
2018-12-31T07:46:01.109Z,41.63
2018-12-31T07:48:30.787Z,38.40
2018-12-31T07:51:01.162Z,39.30
2018-12-31T07:53:30.520Z,40.78
2018-12-31T07:56:01.099Z,47.67
2018-12-31T07:58:30.547Z,42.60
2018-12-31T08:01:04.133Z,49.03
2018-12-31T08:03:33.498Z,46.00
2018-12-31T08:06:03.163Z,45.10
2018-12-31T08:08:32.536Z,44.37
2018-12-31T08:11:02.637Z,36.17
2018-12-31T08:13:32.283Z,51.95
2018-12-31T08:16:01.927Z,55.55
2018-12-31T08:18:31.597Z,45.33
2018-12-31T08:21:01.617Z,39.03
2018-12-31T08:23:31.299Z,49.98
2018-12-31T08:26:00.892Z,41.07
2018-12-31T08:28:30.741Z,41.77
2018-12-31T08:31:00.090Z,34.63
2018-12-31T08:33:29.454Z,37.58
2018-12-31T08:35:59.158Z,43.58
2018-12-31T08:38:28.667Z,38.27
2018-12-31T08:40:58.416Z,40.20
2018-12-31T08:43:28.345Z,35.63
2018-12-31T08:45:57.769Z,30.30
2018-12-31T08:48:28.388Z,29.97
2018-12-31T08:50:57.984Z,37.17
2018-12-31T08:53:27.432Z,33.60
2018-12-31T08:55:57.105Z,34.08
2018-12-31T08:58:26.576Z,27.60
2018-12-31T09:00:56.215Z,30.20
2018-12-31T09:03:25.573Z,28.75
2018-12-31T09:05:55.230Z,21.65
2018-12-31T09:08:24.843Z,24.30
2018-12-31T09:10:54.332Z,25.57
2018-12-31T09:13:23.700Z,26.70
2018-12-31T09:15:53.242Z,23.30
2018-12-31T09:18:22.889Z,23.97
2018-12-31T09:20:52.536Z,24.50
2018-12-31T09:23:22.190Z,19.67
2018-12-31T09:25:51.718Z,21.87
2018-12-31T09:28:21.368Z,25.50
2018-12-31T09:30:52.349Z,24.57
2018-12-31T09:33:21.701Z,28.60
2018-12-31T09:35:51.393Z,17.67
2018-12-31T09:38:25.728Z,20.70
2018-12-31T09:40:55.405Z,24.57
2018-12-31T09:43:24.790Z,22.67
2018-12-31T09:45:54.345Z,21.60
2018-12-31T09:48:23.966Z,21.37
2018-12-31T09:50:53.731Z,18.93
2018-12-31T09:53:23.406Z,20.50
2018-12-31T09:55:52.779Z,19.03
2018-12-31T09:58:22.269Z,19.00
2018-12-31T10:00:51.626Z,20.10
2018-12-31T10:03:21.844Z,18.57
2018-12-31T10:05:51.505Z,19.57
2018-12-31T10:08:21.414Z,12.90
2018-12-31T10:10:50.787Z,19.00
2018-12-31T10:13:20.478Z,21.03
2018-12-31T10:15:49.858Z,21.73
2018-12-31T10:18:19.773Z,23.57
2018-12-31T10:20:49.457Z,20.52
2018-12-31T10:23:19.853Z,19.57
2018-12-31T10:25:49.497Z,18.67
2018-12-31T10:28:19.777Z,16.52
2018-12-31T10:30:49.486Z,12.47
2018-12-31T10:33:20.031Z,11.80
2018-12-31T10:35:49.559Z,18.07
2018-12-31T10:38:19.853Z,21.60
2018-12-31T10:40:49.510Z,31.23
2018-12-31T10:43:19.845Z,19.98
2018-12-31T10:45:49.717Z,15.53
2018-12-31T10:48:19.824Z,15.13
2018-12-31T10:50:49.504Z,16.48
2018-12-31T10:53:19.830Z,17.55
2018-12-31T10:55:49.503Z,18.53
2018-12-31T10:58:20.140Z,19.27
2018-12-31T11:00:49.524Z,17.10
2018-12-31T11:03:19.834Z,18.30
2018-12-31T11:05:49.527Z,18.40
2018-12-31T11:08:19.921Z,18.40
2018-12-31T11:10:49.627Z,17.23
2018-12-31T11:13:20.172Z,21.20
2018-12-31T11:15:49.615Z,20.83
2018-12-31T11:18:20.699Z,20.85
2018-12-31T11:20:50.084Z,22.77
2018-12-31T11:23:20.838Z,17.60
2018-12-31T11:25:50.792Z,18.35
2018-12-31T11:28:21.045Z,20.00
2018-12-31T11:30:53.281Z,14.77
2018-12-31T11:33:23.710Z,24.00
2018-12-31T11:35:53.273Z,21.23
2018-12-31T11:38:23.062Z,20.00
2018-12-31T11:40:54.383Z,16.20
2018-12-31T11:43:23.963Z,18.67
2018-12-31T11:45:54.299Z,18.97
2018-12-31T11:48:24.405Z,22.17
2018-12-31T11:50:53.785Z,17.17
2018-12-31T11:53:24.802Z,19.90
2018-12-31T11:55:54.172Z,19.83
2018-12-31T11:58:24.177Z,17.40
2018-12-31T12:00:53.808Z,21.90
2018-12-31T12:03:24.447Z,18.60
2018-12-31T12:05:53.819Z,24.60
2018-12-31T12:08:24.347Z,19.90
2018-12-31T12:10:53.731Z,13.43
2018-12-31T12:13:23.451Z,15.47
2018-12-31T12:15:52.798Z,17.10
2018-12-31T12:18:22.778Z,20.40
2018-12-31T12:20:52.430Z,18.63
2018-12-31T12:23:22.252Z,15.23
2018-12-31T12:25:51.697Z,37.07
2018-12-31T12:28:21.526Z,17.33
2018-12-31T12:30:50.880Z,18.83
2018-12-31T12:33:20.765Z,18.63
2018-12-31T12:35:50.108Z,17.10
2018-12-31T12:38:20.358Z,16.50
2018-12-31T12:40:49.899Z,15.80
2018-12-31T12:43:20.112Z,19.67
2018-12-31T12:45:49.782Z,21.73
2018-12-31T12:48:20.114Z,16.93
2018-12-31T12:50:49.765Z,21.17
2018-12-31T12:53:20.182Z,18.23
2018-12-31T12:55:49.531Z,20.33
2018-12-31T12:58:20.164Z,19.52
2018-12-31T13:00:50.149Z,19.43
2018-12-31T13:03:20.167Z,19.87
2018-12-31T13:05:50.098Z,17.10
2018-12-31T13:08:20.149Z,22.17
2018-12-31T13:10:53.100Z,16.93
2018-12-31T13:13:23.054Z,20.60
2018-12-31T13:15:53.047Z,28.40
2018-12-31T13:18:22.499Z,21.47
2018-12-31T13:20:52.033Z,23.33
2018-12-31T13:23:21.401Z,23.97
2018-12-31T13:25:50.813Z,16.63
2018-12-31T13:28:20.307Z,23.33
2018-12-31T13:30:51.093Z,17.80
2018-12-31T13:33:22.259Z,22.40
2018-12-31T13:35:52.027Z,15.40
2018-12-31T13:38:21.425Z,19.00
2018-12-31T13:40:51.225Z,21.77
2018-12-31T13:43:20.887Z,24.73
2018-12-31T13:45:50.313Z,21.30
2018-12-31T13:48:20.540Z,23.07
2018-12-31T13:50:50.672Z,24.50
2018-12-31T13:53:20.338Z,19.30
2018-12-31T13:55:49.984Z,26.33
2018-12-31T13:58:20.269Z,27.62
2018-12-31T14:00:50.523Z,26.53
2018-12-31T14:03:20.557Z,31.60
2018-12-31T14:05:50.923Z,28.13
2018-12-31T14:08:20.427Z,31.33
2018-12-31T14:10:50.420Z,30.70
2018-12-31T14:13:20.434Z,36.63
2018-12-31T14:15:50.088Z,52.53
2018-12-31T14:18:20.673Z,38.73
2018-12-31T14:20:50.852Z,75.40
2018-12-31T14:23:20.930Z,33.80
2018-12-31T14:25:50.297Z,32.33
2018-12-31T14:28:20.464Z,30.35
2018-12-31T14:30:51.291Z,27.60
2018-12-31T14:33:21.229Z,27.03
2018-12-31T14:35:51.298Z,25.92
2018-12-31T14:38:20.667Z,29.50
2018-12-31T14:40:50.177Z,33.60
2018-12-31T14:43:20.483Z,27.65
2018-12-31T14:45:49.990Z,30.80
2018-12-31T14:48:20.391Z,32.83
2018-12-31T14:50:50.030Z,31.12
2018-12-31T14:53:20.512Z,29.60
2018-12-31T14:55:50.151Z,29.90
2018-12-31T14:58:20.574Z,29.15
2018-12-31T15:00:50.118Z,29.40
2018-12-31T15:03:20.535Z,31.85
2018-12-31T15:05:50.419Z,30.43
2018-12-31T15:08:20.512Z,25.53
2018-12-31T15:10:50.144Z,30.88
2018-12-31T15:13:20.632Z,29.90
2018-12-31T15:15:50.509Z,24.00
2018-12-31T15:18:20.753Z,33.73
2018-12-31T15:20:50.153Z,30.37
2018-12-31T15:23:20.655Z,28.70
2018-12-31T15:25:50.293Z,29.50
2018-12-31T15:28:20.630Z,30.17
2018-12-31T15:30:50.328Z,26.60
2018-12-31T15:33:20.523Z,29.23
2018-12-31T15:35:50.161Z,33.10
2018-12-31T15:38:20.507Z,32.50
2018-12-31T15:40:50.407Z,31.55
2018-12-31T15:43:20.950Z,33.73
2018-12-31T15:45:50.863Z,31.00
2018-12-31T15:48:20.588Z,26.87
2018-12-31T15:50:50.761Z,29.30
2018-12-31T15:53:20.588Z,34.00
2018-12-31T15:55:50.327Z,30.00
2018-12-31T15:58:20.651Z,25.45
2018-12-31T16:00:50.802Z,27.33
2018-12-31T16:03:20.875Z,35.10
2018-12-31T16:05:50.228Z,35.23
2018-12-31T16:08:20.718Z,32.45
2018-12-31T16:10:50.419Z,33.93
2018-12-31T16:13:20.674Z,35.10
2018-12-31T16:15:50.357Z,40.60
2018-12-31T16:18:23.947Z,41.70
2018-12-31T16:20:53.334Z,31.00
2018-12-31T16:23:22.732Z,35.40
2018-12-31T16:25:52.672Z,37.63
2018-12-31T16:28:22.346Z,37.57
2018-12-31T16:30:52.391Z,38.60
2018-12-31T16:33:21.708Z,39.67
2018-12-31T16:35:51.406Z,39.70
2018-12-31T16:38:20.765Z,44.93
2018-12-31T16:40:50.484Z,53.17
2018-12-31T16:43:20.699Z,55.92
2018-12-31T16:45:52.813Z,53.47
2018-12-31T16:48:22.456Z,43.90
2018-12-31T16:50:51.824Z,35.07
2018-12-31T16:53:21.475Z,38.05
2018-12-31T16:55:50.850Z,33.53
2018-12-31T16:58:20.815Z,38.37
2018-12-31T17:00:50.459Z,45.90
2018-12-31T17:03:20.753Z,36.60
2018-12-31T17:05:50.507Z,75.60
2018-12-31T17:08:20.697Z,40.70
2018-12-31T17:10:50.070Z,48.13
2018-12-31T17:13:20.900Z,44.58
2018-12-31T17:15:50.555Z,66.50
2018-12-31T17:18:20.866Z,385.73
2018-12-31T17:20:50.446Z,50.97
2018-12-31T17:23:20.786Z,34.75
2018-12-31T17:25:50.450Z,31.42
2018-12-31T17:28:20.779Z,27.45
2018-12-31T17:30:50.498Z,30.07
2018-12-31T17:33:20.891Z,24.70
2018-12-31T17:38:42.777Z,21.67
2018-12-31T17:41:12.474Z,19.87
2018-12-31T17:43:41.864Z,21.20
2018-12-31T17:46:11.526Z,22.05
2018-12-31T17:48:40.912Z,21.60
2018-12-31T17:51:31.352Z,24.67
2018-12-31T17:54:00.705Z,21.50
2018-12-31T17:56:30.080Z,19.27
2018-12-31T17:58:59.487Z,20.70
2018-12-31T18:01:28.879Z,22.82
2018-12-31T18:07:00.825Z,17.67
2018-12-31T18:09:30.805Z,28.65
2018-12-31T18:12:00.427Z,24.95
2018-12-31T18:14:30.052Z,22.90
2018-12-31T18:17:20.479Z,20.30
2018-12-31T18:19:49.846Z,16.90
2018-12-31T18:22:20.847Z,15.12
2018-12-31T18:24:50.208Z,16.90
2018-12-31T18:27:40.629Z,10.38
2018-12-31T18:30:09.991Z,15.67
2018-12-31T18:32:39.905Z,11.83
2018-12-31T18:35:19.637Z,16.60
2018-12-31T18:38:08.318Z,17.97
2018-12-31T18:40:50.094Z,15.20
2018-12-31T18:43:20.984Z,20.80
2018-12-31T18:45:50.661Z,14.73
2018-12-31T18:48:22.084Z,18.35
2018-12-31T18:50:58.008Z,13.77
2018-12-31T18:53:47.008Z,16.87
2018-12-31T18:56:28.715Z,20.03
2018-12-31T18:58:58.523Z,13.55
2018-12-31T19:01:28.184Z,23.63
2018-12-31T19:06:38.093Z,28.43
2018-12-31T19:09:28.608Z,44.65
2018-12-31T19:11:57.970Z,38.70
2018-12-31T19:14:27.608Z,25.67
2018-12-31T19:17:08.939Z,29.20
2018-12-31T19:19:51.134Z,28.87
2018-12-31T19:22:34.007Z,49.03
2018-12-31T19:25:03.613Z,32.87
2018-12-31T19:27:33.130Z,22.00
2018-12-31T19:30:15.407Z,19.03
2018-12-31T19:32:44.820Z,19.90
2018-12-31T19:35:33.698Z,17.90
2018-12-31T19:38:03.051Z,18.90
2018-12-31T19:40:32.437Z,16.35
2018-12-31T19:43:02.213Z,21.60
2018-12-31T19:45:31.889Z,15.65
2018-12-31T19:48:01.227Z,16.60
2018-12-31T19:50:30.778Z,16.57
2018-12-31T19:53:00.124Z,22.10
2018-12-31T19:55:29.774Z,20.97
2018-12-31T19:57:59.101Z,20.63
2018-12-31T20:00:28.759Z,22.85
2018-12-31T20:02:58.104Z,18.40
2018-12-31T20:05:27.797Z,23.50
2018-12-31T20:08:18.271Z,22.70
2018-12-31T20:11:26.404Z,21.03
2018-12-31T20:13:55.767Z,23.43
2018-12-31T20:16:25.140Z,24.98
2018-12-31T20:18:54.480Z,22.90
2018-12-31T20:21:26.753Z,27.30
2018-12-31T20:23:56.097Z,28.30
2018-12-31T20:26:25.461Z,22.10
2018-12-31T20:28:55.200Z,26.30
2018-12-31T20:31:25.402Z,21.37
2018-12-31T20:33:54.923Z,25.77
2018-12-31T20:36:31.918Z,28.35
2018-12-31T20:39:01.264Z,25.97
2018-12-31T20:41:32.406Z,25.83
2018-12-31T20:44:21.253Z,20.00
2018-12-31T20:47:22.677Z,23.20
2018-12-31T20:50:04.556Z,19.63
2018-12-31T20:52:47.119Z,21.37
2018-12-31T20:55:29.128Z,23.43
2018-12-31T20:58:10.638Z,30.30
2018-12-31T21:00:52.269Z,27.07
2018-12-31T21:03:34.182Z,30.23
2018-12-31T21:06:15.676Z,32.67
2018-12-31T21:08:45.093Z,32.30
2018-12-31T21:11:14.460Z,29.20
2018-12-31T21:13:56.681Z,50.20
2018-12-31T21:16:26.391Z,25.17
2018-12-31T21:18:56.059Z,43.40
2018-12-31T21:21:38.323Z,38.47
2018-12-31T21:27:09.364Z,36.27
2018-12-31T21:29:52.083Z,31.10
2018-12-31T21:32:21.495Z,32.33
2018-12-31T21:34:51.094Z,31.57
2018-12-31T21:37:21.456Z,28.73
2018-12-31T21:40:10.275Z,33.10
2018-12-31T21:42:39.929Z,38.42
2018-12-31T21:45:28.710Z,32.90
2018-12-31T21:47:58.249Z,31.37
2018-12-31T21:50:27.594Z,35.08
2018-12-31T21:53:09.307Z,35.67
2018-12-31T21:55:38.961Z,33.92
2018-12-31T22:09:55.410Z,21.10
2018-12-31T22:12:25.349Z,18.45
2018-12-31T22:14:54.681Z,17.83
2018-12-31T22:17:24.482Z,17.17
2018-12-31T22:20:06.016Z,17.97
2018-12-31T22:22:35.374Z,23.12
2018-12-31T22:25:26.150Z,22.70
2018-12-31T22:27:55.573Z,22.40
2018-12-31T22:30:25.457Z,21.50
2018-12-31T22:32:55.157Z,25.50
2018-12-31T22:35:24.497Z,47.80
2018-12-31T22:38:25.586Z,26.37
2018-12-31T22:41:07.672Z,38.40
2018-12-31T22:43:37.741Z,31.35
2018-12-31T22:46:07.293Z,15.30
2018-12-31T22:48:55.775Z,27.20
2018-12-31T22:51:25.425Z,22.60
2018-12-31T22:53:55.064Z,27.35
2018-12-31T22:56:43.801Z,23.80
2018-12-31T22:59:34.261Z,28.55
2018-12-31T23:02:03.620Z,30.40
2018-12-31T23:04:33.520Z,32.80
2018-12-31T23:07:03.042Z,36.33
2018-12-31T23:09:55.059Z,30.53
2018-12-31T23:12:26.318Z,48.87
2018-12-31T23:15:10.038Z,52.53
2018-12-31T23:17:46.241Z,44.85
2018-12-31T23:20:17.349Z,60.13
2018-12-31T23:23:05.830Z,60.73
2018-12-31T23:25:35.468Z,41.30
2018-12-31T23:28:05.415Z,55.25
2018-12-31T23:30:34.757Z,36.47
2018-12-31T23:33:04.348Z,35.73
2018-12-31T23:35:54.605Z,28.80
2018-12-31T23:38:44.893Z,29.10
2018-12-31T23:41:15.117Z,45.17
2018-12-31T23:43:51.310Z,40.80
2018-12-31T23:46:26.351Z,32.00
2018-12-31T23:48:56.448Z,36.33
2018-12-31T23:51:25.780Z,25.27
2018-12-31T23:54:14.750Z,24.17
2018-12-31T23:56:44.282Z,22.17
2018-12-31T23:59:13.856Z,29.40
